Nestor — V2FB3 — position and weather

sailwx.info

Track history (hours):
 
Tides and Currents Weather Stations Pressure Air Temp Water Temp Dewpoint Dewpoint Depression Visibility Wind Speed Wind Dir Waves Ship Positions

Nestor

Last reported at 2016-Dec-10 02:32 UTC. Time now 2016-Dec-10 03:01 UTC.
Position N 50°53' E 001°28'.

Length 88 m; draft 3.6 m.

Type: Cargo ship. MMSI: 305620000.

Date/timePositionNaut miles runAvg speedWind from/ knotsBaromVisibWave heightAir tempDewpointWater temp
2016-Dec-10 02:32N 50°53' E 001°28'62 8.8
2016-Dec-09 19:33N 50°19' E 000°07'1110.7
2016-Dec-09 18:33N 50°16' W 000°09'1211.3
2016-Dec-09 17:31N 50°13' W 000°27'1212.0
2016-Dec-09 16:34N 50°10' W 000°44'2512.7
2016-Dec-09 14:33N 50°04' W 001°23'2411.8
2016-Dec-09 12:31N 49°58' W 001°59'30 9.3
2016-Dec-09 09:18N 49°51' W 002°45'7 8.8
2016-Dec-09 08:33N 49°50' W 002°55'1010.0
2016-Dec-09 07:33N 49°50' W 003°10'22 9.5
2016-Dec-09 05:16N 49°51' W 003°44'18 9.9
2016-Dec-09 03:28N 49°52' W 004°12'72 7.0
2016-Dec-08 17:11N 50°24' W 005°52'6 9.5
2016-Dec-08 16:33N 50°28' W 005°45'13 9.4
2016-Dec-08 15:10N 50°38' W 005°31'7 9.2
2016-Dec-08 14:25N 50°42' W 005°23'8 9.0
2016-Dec-08 13:34N 50°47' W 005°14'8 8.4
2016-Dec-08 12:33N 50°52' W 005°03'8 8.0
2016-Dec-08 11:33N 50°57' W 004°53'7 7.4
2016-Dec-08 10:33N 51°02' W 004°44'6 6.4
2016-Dec-08 09:33N 51°06' W 004°36'30 7.0
2016-Dec-08 05:17N 51°18' W 003°52'3311.3
2016-Dec-08 02:23N 51°27' W 003°01'1113.1
2016-Dec-08 01:33N 51°31' W 002°45'1111.0
2016-Dec-08 00:33N 51°40' W 002°35'  
2016-Dec-01 03:12N 51°43' W 002°28'0 0.0
2016-Dec-01 00:33N 51°43' W 002°28'0 0.0
2016-Nov-30 23:33N 51°43' W 002°28'0 0.0
2016-Nov-30 22:33N 51°43' W 002°28'0 0.0
2016-Nov-30 21:27N 51°43' W 002°28'0 0.0
2016-Nov-30 10:33N 51°43' W 002°29'0 0.1
2016-Nov-30 09:33N 51°43' W 002°29'0 0.0
2016-Nov-30 08:33N 51°43' W 002°29'2 1.9
2016-Nov-30 07:34N 51°41' W 002°30'9 8.5
2016-Nov-30 06:33N 51°36' W 002°41'10 9.9
2016-Nov-30 05:33N 51°28' W 002°51'1010.3
2016-Nov-30 04:33N 51°24' W 003°06'8 7.8
2016-Nov-30 03:33N 51°21' W 003°18'  
Track history (hours):
 
Tides and Currents Weather Stations Pressure Air Temp Water Temp Dewpoint Dewpoint Depression Visibility Wind Speed Wind Dir Waves Ship Positions

Nestor

Last reported at 2016-Dec-10 02:32 UTC. Time now 2016-Dec-10 03:01 UTC.
Position N 50°53' E 001°28'.

Length 88 m; draft 3.6 m.

Type: Cargo ship. MMSI: 305620000.

Date/timePositionNaut miles runAvg speedWind from/ knotsBaromVisibWave heightAir tempDewpointWater temp
2016-Dec-10 02:32N 50°53' E 001°28'62 8.8
2016-Dec-09 19:33N 50°19' E 000°07'1110.7
2016-Dec-09 18:33N 50°16' W 000°09'1211.3
2016-Dec-09 17:31N 50°13' W 000°27'1212.0
2016-Dec-09 16:34N 50°10' W 000°44'2512.7
2016-Dec-09 14:33N 50°04' W 001°23'2411.8
2016-Dec-09 12:31N 49°58' W 001°59'30 9.3
2016-Dec-09 09:18N 49°51' W 002°45'7 8.8
2016-Dec-09 08:33N 49°50' W 002°55'1010.0
2016-Dec-09 07:33N 49°50' W 003°10'22 9.5
2016-Dec-09 05:16N 49°51' W 003°44'18 9.9
2016-Dec-09 03:28N 49°52' W 004°12'72 7.0
2016-Dec-08 17:11N 50°24' W 005°52'6 9.5
2016-Dec-08 16:33N 50°28' W 005°45'13 9.4
2016-Dec-08 15:10N 50°38' W 005°31'7 9.2
2016-Dec-08 14:25N 50°42' W 005°23'8 9.0
2016-Dec-08 13:34N 50°47' W 005°14'8 8.4
2016-Dec-08 12:33N 50°52' W 005°03'8 8.0
2016-Dec-08 11:33N 50°57' W 004°53'7 7.4
2016-Dec-08 10:33N 51°02' W 004°44'6 6.4
2016-Dec-08 09:33N 51°06' W 004°36'30 7.0
2016-Dec-08 05:17N 51°18' W 003°52'3311.3
2016-Dec-08 02:23N 51°27' W 003°01'1113.1
2016-Dec-08 01:33N 51°31' W 002°45'1111.0
2016-Dec-08 00:33N 51°40' W 002°35'  
2016-Dec-01 03:12N 51°43' W 002°28'0 0.0
2016-Dec-01 00:33N 51°43' W 002°28'0 0.0
2016-Nov-30 23:33N 51°43' W 002°28'0 0.0
2016-Nov-30 22:33N 51°43' W 002°28'0 0.0
2016-Nov-30 21:27N 51°43' W 002°28'0 0.0
2016-Nov-30 10:33N 51°43' W 002°29'0 0.1
2016-Nov-30 09:33N 51°43' W 002°29'0 0.0
2016-Nov-30 08:33N 51°43' W 002°29'2 1.9
2016-Nov-30 07:34N 51°41' W 002°30'9 8.5
2016-Nov-30 06:33N 51°36' W 002°41'10 9.9
2016-Nov-30 05:33N 51°28' W 002°51'1010.3
2016-Nov-30 04:33N 51°24' W 003°06'8 7.8
2016-Nov-30 03:33N 51°21' W 003°18'  

Dump ship's entire track history